Time;durP1;ratioP1;P1;durP2;ratioP2;P2;SDS_P1;SDS_P2;PMS_P1;PMS_P2;Temp;Humidity;BMP_temperature;BMP_pressure;BME280_temperature;BME280_humidity;BME280_pressure;Samples;Min_cycle;Max_cycle;Signal;HPM_P1;HPM_P2
2024/04/07 00:02:03;;;;;;;;;;;;;;;7.00;100.00;99185.44;4886517;29;19919;-82
2024/04/07 00:04:28;;;;;;;;;;;;;;;6.98;100.00;99196.03;4887672;29;19939;-85
2024/04/07 00:06:53;;;;;;;;;;;;;;;7.04;100.00;99208.13;4888745;29;19920;-84
2024/04/07 00:09:19;;;;;;;;;;;;;;;7.08;100.00;99210.59;4886341;29;19931;-83
2024/04/07 00:11:44;;;;;;;;;;;;;;;7.11;100.00;99216.66;4886239;29;20422;-83
2024/04/07 00:14:09;;;;;;;;;;;;;;;7.17;100.00;99208.50;4871513;29;19927;-84
2024/04/07 00:16:34;;;;;;;;;;;;;;;7.14;100.00;99209.47;4887847;29;20021;-84
2024/04/07 00:19:00;;;;;;;;;;;;;;;7.14;100.00;99214.75;4887821;29;19934;-85
2024/04/07 00:21:27;;;;;;;;;;;;;;;7.19;100.00;99219.84;4887626;29;19920;-88
2024/04/07 00:23:53;;;;;;;;;;;;;;;7.23;100.00;99222.31;4887508;29;19932;-83
2024/04/07 00:26:19;;;;;;;;;;;;;;;7.25;100.00;99230.16;4886412;29;20010;-90
2024/04/07 07:38:47;;;;;;;;;;;;;;;5.13;100.00;99771.28;4985049;23;19927;-82
2024/04/07 07:41:13;;;;;;;;;;;;;;;5.16;100.00;99774.72;4897881;29;20264;-81
2024/04/07 07:43:38;;;;;;;;;;;;;;;5.14;100.00;99775.63;4897278;29;20398;-83
2024/04/07 07:46:04;;;;;;;;;;;;;;;5.13;100.00;99777.41;4897656;29;19924;-83
2024/04/07 07:48:29;;;;;;;;;;;;;;;5.08;100.00;99780.13;4897887;29;19916;-83
2024/04/07 07:50:54;;;;;;;;;;;;;;;5.08;100.00;99780.13;4880776;29;20272;-81
2024/04/07 07:53:19;;;;;;;;;;;;;;;5.03;100.00;99791.63;4895615;29;19955;-81
2024/04/07 07:55:46;;;;;;;;;;;;;;;5.07;100.00;99780.16;4897507;29;19934;-82
2024/04/07 07:58:11;;;;;;;;;;;;;;;5.11;100.00;99799.34;4879978;29;19923;-81
2024/04/07 08:00:36;;;;;;;;;;;;;;;5.13;100.00;99802.81;4897423;29;20314;-81
2024/04/07 08:03:01;;;;;;;;;;;;;;;5.12;100.00;99801.94;4880679;29;20402;-81
2024/04/07 08:05:28;;;;;;;;;;;;;;;5.14;100.00;99810.66;4879984;29;20146;-81
2024/04/07 08:07:54;;;;;;;;;;;;;;;5.19;100.00;99818.44;4896069;29;19928;-81
2024/04/07 08:10:24;;;;;;;;;;;;;;;5.17;100.00;99815.84;4897466;29;20327;-85
2024/04/07 08:12:49;;;;;;;;;;;;;;;5.20;100.00;99812.28;4865152;29;19919;-83
2024/04/07 08:15:14;;;;;;;;;;;;;;;5.24;100.00;99813.97;4880363;29;19934;-81
2024/04/07 08:17:40;;;;;;;;;;;;;;;5.23;100.00;99820.09;4897153;29;19919;-81
2024/04/07 08:20:05;;;;;;;;;;;;;;;5.24;100.00;99817.44;4880340;29;19923;-81
2024/04/07 08:22:30;;;;;;;;;;;;;;;5.30;100.00;99812.94;4879114;29;20026;-78
2024/04/07 08:24:56;;;;;;;;;;;;;;;5.27;100.00;99811.28;4897119;29;19976;-82
2024/04/07 08:27:21;;;;;;;;;;;;;;;5.28;100.00;99810.34;4897145;29;19919;-82
2024/04/07 08:29:47;;;;;;;;;;;;;;;5.25;100.00;99808.69;4880287;29;20251;-81
2024/04/07 08:32:12;;;;;;;;;;;;;;;5.24;100.00;99800.81;4896413;29;20394;-81
2024/04/07 08:34:39;;;;;;;;;;;;;;;5.19;100.00;99810.56;4896987;29;20022;-84
2024/04/07 08:37:04;;;;;;;;;;;;;;;5.19;100.00;99797.44;4878194;29;19919;-82
2024/04/07 08:39:29;;;;;;;;;;;;;;;5.21;100.00;99800.88;4896850;29;20435;-85
2024/04/07 08:41:57;;;;;;;;;;;;;;;5.24;100.00;99801.69;4880187;29;19935;-80
2024/04/07 08:44:23;;;;;;;;;;;;;;;5.28;100.00;99798.09;4897021;29;19926;-80
2024/04/07 08:46:49;;;;;;;;;;;;;;;5.28;100.00;99798.09;4896956;29;20449;-80
2024/04/07 08:49:14;;;;;;;;;;;;;;;5.24;100.00;99804.31;4896177;29;20006;-80
2024/04/07 08:51:44;;;;;;;;;;;;;;;5.25;100.00;99808.69;4895583;29;20003;-84
2024/04/07 08:54:10;;;;;;;;;;;;;;;5.28;100.00;99813.88;4882242;29;19920;-80
2024/04/07 08:56:37;;;;;;;;;;;;;;;5.27;100.00;99808.66;4900773;29;19924;-80
2024/04/07 08:59:06;;;;;;;;;;;;;;;5.31;100.00;99806.81;4900583;29;20431;-81
2024/04/07 09:01:32;;;;;;;;;;;;;;;5.31;100.00;99796.31;4900746;29;20157;-81
2024/04/07 09:03:59;;;;;;;;;;;;;;;5.31;100.00;99805.03;4900580;29;20443;-82
2024/04/07 09:06:26;;;;;;;;;;;;;;;5.30;100.00;99800.69;4900405;29;19920;-81
2024/04/07 09:08:51;;;;;;;;;;;;;;;5.35;100.00;99793.56;4882730;29;19920;-81
2024/04/07 09:11:17;;;;;;;;;;;;;;;5.37;100.00;99807.53;4900718;29;19924;-82
2024/04/07 09:13:42;;;;;;;;;;;;;;;5.38;100.00;99803.19;4900436;29;20272;-82
2024/04/07 09:16:07;;;;;;;;;;;;;;;5.38;100.00;99800.53;4900415;29;20022;-82
2024/04/07 09:18:32;;;;;;;;;;;;;;;5.36;100.00;99802.31;4900391;29;19923;-83
2024/04/07 09:20:57;;;;;;;;;;;;;;;5.44;100.00;99800.38;4900376;29;19923;-82
2024/04/07 09:23:23;;;;;;;;;;;;;;;5.34;100.00;99796.25;4899201;29;19978;-81
2024/04/07 09:25:53;;;;;;;;;;;;;;;5.36;100.00;99784.81;4900194;29;19969;-82
2024/04/07 09:28:18;;;;;;;;;;;;;;;5.43;100.00;99790.78;4899528;29;19975;-82
2024/04/07 09:30:43;;;;;;;;;;;;;;;5.38;100.00;99780.38;4900379;29;19927;-82
2024/04/07 09:33:08;;;;;;;;;;;;;;;5.37;100.00;99778.63;4900224;29;19923;-81
2024/04/07 09:35:34;;;;;;;;;;;;;;;5.37;100.00;99780.41;4900023;29;19926;-82
2024/04/07 09:37:59;;;;;;;;;;;;;;;5.35;100.00;99783.06;4881792;29;19979;-83
2024/04/07 09:40:25;;;;;;;;;;;;;;;5.36;100.00;99783.94;4883081;29;19920;-81
2024/04/07 09:42:53;;;;;;;;;;;;;;;5.37;100.00;99783.88;4900246;29;19924;-83
2024/04/07 09:45:20;;;;;;;;;;;;;;;5.37;100.00;99793.53;4882296;29;20286;-82
2024/04/07 09:47:47;;;;;;;;;;;;;;;5.39;100.00;99786.50;4899830;29;20010;-83
2024/04/07 09:50:35;;;;;;;;;;;;;;;5.42;100.00;99794.31;4899731;29;20417;-82
2024/04/07 09:53:16;;;;;;;;;;;;;;;5.38;100.00;99800.53;4897626;29;19923;-82
2024/04/07 09:55:42;;;;;;;;;;;;;;;5.37;100.00;99797.03;4899243;29;20018;-83
2024/04/07 09:58:08;;;;;;;;;;;;;;;5.36;100.00;99799.69;4899440;29;19962;-82
2024/04/07 10:00:35;;;;;;;;;;;;;;;5.37;100.00;99798.81;4899715;29;20395;-81
2024/04/07 10:03:02;;;;;;;;;;;;;;;5.40;100.00;99806.63;4898781;29;19919;-81
2024/04/07 10:05:27;;;;;;;;;;;;;;;5.41;100.00;99808.38;4898629;29;19934;-83
2024/04/07 10:07:52;;;;;;;;;;;;;;;5.44;100.00;99792.50;4898237;29;19924;-80
2024/04/07 10:10:21;;;;;;;;;;;;;;;5.39;100.00;99789.13;4899270;29;19976;-81
2024/04/07 10:12:47;;;;;;;;;;;;;;;5.36;100.00;99789.19;4882474;29;19920;-83
2024/04/07 10:15:19;;;;;;;;;;;;;;;5.42;100.00;99794.31;4899253;29;19930;-80
2024/04/07 10:17:44;;;;;;;;;;;;;;;5.42;100.00;99784.66;4899516;29;19983;-81
2024/04/07 10:20:12;;;;;;;;;;;;;;;5.47;100.00;99787.19;4899189;29;20470;-80
2024/04/07 10:22:37;;;;;;;;;;;;;;;5.40;100.00;99775.09;4897974;29;20370;-80
2024/04/07 10:25:05;;;;;;;;;;;;;;;5.44;100.00;99784.63;4899203;29;19934;-80
2024/04/07 10:27:31;;;;;;;;;;;;;;;5.39;100.00;99783.84;4898350;29;19926;-81
2024/04/07 10:29:58;;;;;;;;;;;;;;;5.39;100.00;99778.59;4899067;29;20018;-81
2024/04/07 10:32:27;;;;;;;;;;;;;;;5.43;100.00;99775.88;4898395;29;19924;-82
2024/04/07 10:35:09;;;;;;;;;;;;;;;5.39;100.00;99773.34;4898155;29;20361;-81
2024/04/07 16:49:22;;;;;;;;;;;;;;;5.75;100.00;99226.56;5600622;23;19928;-82
2024/04/07 16:51:49;;;;;;;;;;;;;;;5.82;100.00;99217.56;4860214;29;19924;-83
2024/04/07 16:54:15;;;;;;;;;;;;;;;5.81;100.00;99205.34;4861536;29;20363;-80
2024/04/07 16:56:40;;;;;;;;;;;;;;;5.78;100.00;99208.06;4877911;29;20059;-82
2024/04/07 16:59:06;;;;;;;;;;;;;;;5.86;100.00;99198.16;4861076;29;19924;-82
2024/04/07 17:01:31;;;;;;;;;;;;;;;5.78;100.00;99200.19;4877483;29;20426;-83
2024/04/07 17:03:56;;;;;;;;;;;;;;;5.82;100.00;99204.41;4876757;29;20368;-83
2024/04/07 17:06:22;;;;;;;;;;;;;;;5.84;100.00;99210.50;4860354;29;20283;-83
2024/04/07 17:08:47;;;;;;;;;;;;;;;5.82;100.00;99204.41;4861236;29;19924;-82
2024/04/07 17:11:12;;;;;;;;;;;;;;;5.80;100.00;99206.25;4877315;29;19984;-82
2024/04/07 17:13:40;;;;;;;;;;;;;;;5.76;100.00;99207.25;4877808;29;19924;-82
2024/04/07 17:16:06;;;;;;;;;;;;;;;5.81;100.00;99203.56;4879956;29;19942;-82
2024/04/07 17:18:32;;;;;;;;;;;;;;;5.82;100.00;99201.78;4879579;29;19963;-86
2024/04/07 17:20:57;;;;;;;;;;;;;;;5.82;100.00;99201.78;4881452;29;20031;-87
2024/04/07 17:23:23;;;;;;;;;;;;;;;5.79;100.00;99196.63;4881335;29;20328;-83
2024/04/07 17:25:49;;;;;;;;;;;;;;;5.80;100.00;99175.56;4881456;29;20367;-83
2024/04/07 17:28:14;;;;;;;;;;;;;;;5.81;100.00;99176.44;4880610;29;19928;-83
2024/04/07 17:30:40;;;;;;;;;;;;;;;5.79;100.00;99188.75;4881212;29;20015;-83
2024/04/07 17:33:05;;;;;;;;;;;;;;;5.84;100.00;99186.84;4880191;29;19967;-83
2024/04/07 17:35:31;;;;;;;;;;;;;;;5.82;100.00;99184.28;4881357;29;19980;-83
2024/04/07 17:37:56;;;;;;;;;;;;;;;5.83;100.00;99182.50;4860256;29;19927;-85
2024/04/07 17:40:21;;;;;;;;;;;;;;;5.78;100.00;99187.03;4881283;29;19924;-83
2024/04/07 17:42:47;;;;;;;;;;;;;;;5.77;100.00;99191.44;4864423;29;19930;-83
2024/04/07 17:45:16;;;;;;;;;;;;;;;5.77;100.00;99191.44;4863310;29;19924;-89
2024/04/07 17:47:42;;;;;;;;;;;;;;;5.78;100.00;99193.16;4880433;29;19932;-82
2024/04/07 17:50:07;;;;;;;;;;;;;;;5.79;100.00;99194.00;4878935;29;20427;-82
2024/04/07 17:52:32;;;;;;;;;;;;;;;5.77;100.00;99185.31;4880732;29;20010;-82
2024/04/07 17:54:58;;;;;;;;;;;;;;;5.78;100.00;99187.03;4880406;29;19953;-82
2024/04/07 17:57:25;;;;;;;;;;;;;;;5.79;100.00;99188.75;4864026;29;19985;-86
2024/04/07 17:59:50;;;;;;;;;;;;;;;5.79;100.00;99188.75;4864042;29;19923;-82
2024/04/07 18:02:15;;;;;;;;;;;;;;;5.75;100.00;99188.00;4880668;29;19957;-86
2024/04/07 18:04:41;;;;;;;;;;;;;;;5.80;100.00;99191.31;4879587;29;19923;-85
2024/04/07 18:07:06;;;;;;;;;;;;;;;5.81;100.00;99182.53;4880090;29;19971;-82
2024/04/07 18:09:31;;;;;;;;;;;;;;;5.81;100.00;99182.53;4880456;29;20010;-80
2024/04/07 18:11:56;;;;;;;;;;;;;;;5.86;100.00;99179.75;4880288;29;19935;-86
2024/04/07 18:14:22;;;;;;;;;;;;;;;5.76;100.00;99183.59;4879939;29;19923;-80
2024/04/07 18:16:47;;;;;;;;;;;;;;;5.84;100.00;99189.47;4880190;29;20013;-83
2024/04/07 18:19:13;;;;;;;;;;;;;;;5.84;100.00;99202.63;4879440;29;19919;-83
2024/04/07 18:21:38;;;;;;;;;;;;;;;5.84;100.00;99200.00;4880033;29;19928;-84
2024/04/07 18:24:04;;;;;;;;;;;;;;;5.85;100.00;99203.47;4880167;29;19928;-82
2024/04/07 18:26:29;;;;;;;;;;;;;;;5.86;100.00;99200.78;4878447;29;20047;-78
2024/04/07 18:28:55;;;;;;;;;;;;;;;5.79;100.00;99207.16;4880030;29;19968;-80
2024/04/07 18:31:21;;;;;;;;;;;;;;;5.80;100.00;99207.09;4878667;29;19924;-81
2024/04/07 18:33:46;;;;;;;;;;;;;;;5.80;100.00;99216.75;4879185;29;19931;-82
2024/04/07 18:36:11;;;;;;;;;;;;;;;5.80;100.00;99212.34;4880205;29;19927;-82
2024/04/07 18:38:37;;;;;;;;;;;;;;;5.85;100.00;99211.38;4880059;29;19924;-83
2024/04/07 18:41:02;;;;;;;;;;;;;;;5.84;100.00;99210.50;4880377;29;19924;-82
2024/04/07 18:43:27;;;;;;;;;;;;;;;5.78;100.00;99200.19;4862745;29;19920;-81
2024/04/07 18:45:52;;;;;;;;;;;;;;;5.78;100.00;99203.66;4880034;29;19931;-80
2024/04/07 18:48:18;;;;;;;;;;;;;;;5.75;100.00;99192.41;4862045;29;20370;-83
2024/04/07 18:50:56;;;;;;;;;;;;;;;5.79;100.00;99199.25;4878520;29;19928;-83
2024/04/07 18:53:21;;;;;;;;;;;;;;;5.74;100.00;99199.41;4862591;29;19939;-82
2024/04/07 18:55:46;;;;;;;;;;;;;;;5.79;100.00;99207.16;4873801;29;19920;-84
2024/04/07 18:58:13;;;;;;;;;;;;;;;5.73;100.00;99196.84;4863291;29;19968;-82
2024/04/07 19:00:45;;;;;;;;;;;;;;;5.74;100.00;99201.19;4879869;29;20347;-81
2024/04/07 19:03:14;;;;;;;;;;;;;;;5.77;100.00;99191.44;4877566;29;19927;-83
2024/04/07 19:05:40;;;;;;;;;;;;;;;5.78;100.00;99181.78;4878951;29;19924;-82
2024/04/07 19:08:06;;;;;;;;;;;;;;;5.76;100.00;99173.06;4879905;29;19979;-82
2024/04/07 19:10:33;;;;;;;;;;;;;;;5.74;100.00;99174.91;4878831;29;19935;-81
2024/04/07 19:12:59;;;;;;;;;;;;;;;5.74;100.00;99175.75;4879515;29;19927;-81
2024/04/07 19:15:24;;;;;;;;;;;;;;;5.73;100.00;99173.19;4879510;29;19920;-84
2024/04/07 19:17:49;;;;;;;;;;;;;;;5.79;100.00;99159.81;4879173;29;20395;-82
2024/04/07 19:20:15;;;;;;;;;;;;;;;5.75;100.00;99145.94;4877866;29;19924;-81
2024/04/07 19:22:41;;;;;;;;;;;;;;;5.75;100.00;99143.31;4879374;29;19991;-82
2024/04/07 19:25:07;;;;;;;;;;;;;;;5.77;100.00;99148.50;4862611;29;20344;-81
2024/04/07 19:27:32;;;;;;;;;;;;;;;5.75;100.00;99139.81;4862632;29;19924;-81
2024/04/07 19:29:58;;;;;;;;;;;;;;;5.75;100.00;99137.19;4879290;29;20039;-82
2024/04/07 19:32:23;;;;;;;;;;;;;;;5.74;100.00;99144.19;4862568;29;19927;-81
2024/04/07 19:34:49;;;;;;;;;;;;;;;5.78;100.00;99153.72;4877685;29;20026;-80
2024/04/07 19:37:14;;;;;;;;;;;;;;;5.81;100.00;99163.28;4879073;29;20144;-80
2024/04/07 19:39:40;;;;;;;;;;;;;;;5.82;100.00;99162.34;4878690;29;19920;-81
2024/04/07 19:42:09;;;;;;;;;;;;;;;5.83;100.00;99158.81;4879097;29;19934;-80
2024/04/07 19:44:34;;;;;;;;;;;;;;;5.82;100.00;99157.97;4878551;29;19923;-80
2024/04/07 19:47:00;;;;;;;;;;;;;;;5.81;100.00;99165.91;4879118;29;19926;-81
2024/04/07 19:49:25;;;;;;;;;;;;;;;5.79;100.00;99167.72;4877767;29;19924;-80
2024/04/07 19:51:50;;;;;;;;;;;;;;;5.80;100.00;99167.66;4878603;29;20422;-80
2024/04/07 19:54:15;;;;;;;;;;;;;;;5.80;100.00;99169.44;4879175;29;19920;-81
2024/04/07 19:56:41;;;;;;;;;;;;;;;5.80;100.00;99162.41;4878913;29;19974;-82
2024/04/07 19:59:06;;;;;;;;;;;;;;;5.81;100.00;99161.50;4878972;29;19919;-80
2024/04/07 20:01:31;;;;;;;;;;;;;;;5.82;100.00;99157.09;4862111;29;20298;-81
2024/04/07 20:03:57;;;;;;;;;;;;;;;5.75;100.00;99156.44;4877484;29;20355;-80
2024/04/07 20:06:24;;;;;;;;;;;;;;;5.80;100.00;99161.56;4878926;29;19919;-80
2024/04/07 20:08:49;;;;;;;;;;;;;;;5.81;100.00;99144.88;4878694;29;19927;-81
2024/04/07 20:11:14;;;;;;;;;;;;;;;5.78;100.00;99156.34;4878815;29;20021;-84
2024/04/07 20:13:40;;;;;;;;;;;;;;;5.77;100.00;99159.03;4878618;29;19920;-79
2024/04/07 20:16:05;;;;;;;;;;;;;;;5.77;100.00;99148.50;4878505;29;19924;-80
2024/04/07 20:18:30;;;;;;;;;;;;;;;5.78;100.00;99147.63;4877401;29;19928;-80
2024/04/07 20:20:57;;;;;;;;;;;;;;;5.80;100.00;99145.78;4878603;29;20376;-80
2024/04/07 20:23:22;;;;;;;;;;;;;;;5.79;100.00;99133.53;4861888;29;20010;-80
2024/04/07 20:25:48;;;;;;;;;;;;;;;5.82;100.00;99130.81;4861714;29;20052;-80
2024/04/07 20:28:13;;;;;;;;;;;;;;;5.81;100.00;99147.50;4878386;29;19963;-80
2024/04/07 20:30:40;;;;;;;;;;;;;;;5.74;100.00;99135.47;4878500;29;19941;-80
2024/04/07 20:33:05;;;;;;;;;;;;;;;5.78;100.00;99147.63;4861351;29;19923;-80
2024/04/07 20:35:30;;;;;;;;;;;;;;;5.77;100.00;99143.25;4877564;29;20010;-80
2024/04/07 20:37:56;;;;;;;;;;;;;;;5.78;100.00;99140.56;4877685;29;19951;-80
2024/04/07 20:40:22;;;;;;;;;;;;;;;5.77;100.00;99159.03;4878384;29;20044;-80
2024/04/07 20:42:47;;;;;;;;;;;;;;;5.80;100.00;99154.53;4878395;29;20046;-80
2024/04/07 20:45:12;;;;;;;;;;;;;;;5.77;100.00;99143.25;4878335;29;20006;-80
2024/04/07 20:47:38;;;;;;;;;;;;;;;5.77;100.00;99153.78;4878467;29;19924;-80
2024/04/07 20:50:04;;;;;;;;;;;;;;;5.71;100.00;99138.19;4862211;29;20430;-81
2024/04/07 20:52:31;;;;;;;;;;;;;;;5.73;100.00;99146.91;4882251;29;19924;-81
2024/04/07 20:54:56;;;;;;;;;;;;;;;5.74;100.00;99138.94;4881928;29;19927;-80
2024/04/07 20:57:21;;;;;;;;;;;;;;;5.73;100.00;99141.66;4865266;29;19924;-80
2024/04/07 20:59:47;;;;;;;;;;;;;;;5.73;100.00;99147.75;4865270;29;20410;-83
2024/04/07 21:02:12;;;;;;;;;;;;;;;5.77;100.00;99149.34;4882031;29;20022;-80
2024/04/07 21:04:38;;;;;;;;;;;;;;;5.79;100.00;99154.56;4880800;29;20420;-81
2024/04/07 21:07:03;;;;;;;;;;;;;;;5.79;100.00;99157.19;4881922;29;19924;-81
2024/04/07 21:09:28;;;;;;;;;;;;;;;5.79;100.00;99159.81;4881281;29;20283;-81
2024/04/07 21:11:54;;;;;;;;;;;;;;;5.80;100.00;99154.53;4881578;29;19916;-83
2024/04/07 21:14:20;;;;;;;;;;;;;;;5.75;100.00;99150.34;4881821;29;20398;-80
2024/04/07 21:16:45;;;;;;;;;;;;;;;5.79;100.00;99144.06;4881598;29;19920;-81
2024/04/07 21:19:10;;;;;;;;;;;;;;;5.77;100.00;99135.38;4880535;29;20340;-80
2024/04/07 21:21:36;;;;;;;;;;;;;;;5.77;100.00;99130.09;4881670;29;19924;-86
2024/04/07 21:24:01;;;;;;;;;;;;;;;5.80;100.00;99133.47;4881670;29;19932;-83
2024/04/07 21:26:28;;;;;;;;;;;;;;;5.71;100.00;99122.44;4881352;29;19924;-80
2024/04/07 21:28:53;;;;;;;;;;;;;;;5.71;100.00;99132.94;4881491;29;20019;-81
2024/04/07 21:31:18;;;;;;;;;;;;;;;5.77;100.00;99132.75;4881676;29;20395;-81
2024/04/07 21:33:44;;;;;;;;;;;;;;;5.72;100.00;99130.25;4880300;29;19920;-81
2024/04/07 21:36:10;;;;;;;;;;;;;;;5.79;100.00;99128.28;4881414;29;20379;-81
2024/04/07 21:38:35;;;;;;;;;;;;;;;5.75;100.00;99127.53;4881349;29;19974;-81
2024/04/07 21:41:00;;;;;;;;;;;;;;;5.74;100.00;99132.84;4864669;29;20291;-81
2024/04/07 21:43:26;;;;;;;;;;;;;;;5.75;100.00;99143.31;4864542;29;20403;-80
2024/04/07 21:45:51;;;;;;;;;;;;;;;5.77;100.00;99145.88;4864495;29;20296;-81
2024/04/07 21:48:18;;;;;;;;;;;;;;;5.73;100.00;99142.50;4879953;29;19971;-85
2024/04/07 21:50:43;;;;;;;;;;;;;;;5.76;100.00;99146.78;4864285;29;19928;-80
2024/04/07 21:53:09;;;;;;;;;;;;;;;5.73;100.00;99141.66;4881164;29;20269;-81
2024/04/07 21:55:36;;;;;;;;;;;;;;;5.71;100.00;99135.56;4864379;29;20291;-81
2024/04/07 21:58:02;;;;;;;;;;;;;;;5.67;100.00;99134.81;4880934;29;19931;-81
2024/04/07 22:00:27;;;;;;;;;;;;;;;5.68;100.00;99135.66;4880786;29;19924;-81
2024/04/07 22:02:53;;;;;;;;;;;;;;;5.73;100.00;99136.41;4863905;29;19999;-80
2024/04/07 22:05:18;;;;;;;;;;;;;;;5.74;100.00;99127.59;4862842;29;19920;-80
2024/04/07 22:07:43;;;;;;;;;;;;;;;5.70;100.00;99118.09;4881028;29;19920;-81
2024/04/07 22:10:08;;;;;;;;;;;;;;;5.74;100.00;99098.66;4880724;29;19967;-84
2024/04/07 22:12:34;;;;;;;;;;;;;;;5.77;100.00;99085.41;4864042;29;19992;-80
2024/04/07 22:14:59;;;;;;;;;;;;;;;5.80;100.00;99072.16;4880460;29;19920;-81
2024/04/07 22:17:25;;;;;;;;;;;;;;;5.70;100.00;99074.25;4880874;29;20154;-82
2024/04/07 22:19:51;;;;;;;;;;;;;;;5.73;100.00;99066.28;4878657;29;20139;-81
2024/04/07 22:22:18;;;;;;;;;;;;;;;5.67;100.00;99084.03;4863116;29;20367;-82
2024/04/07 22:24:44;;;;;;;;;;;;;;;5.64;100.00;99080.56;4864334;29;19923;-81
2024/04/07 22:27:12;;;;;;;;;;;;;;;5.73;100.00;99054.91;4863577;29;19931;-81
2024/04/07 22:29:37;;;;;;;;;;;;;;;5.64;100.00;99028.00;4880620;29;20280;-81
2024/04/07 22:32:02;;;;;;;;;;;;;;;5.67;100.00;99036.72;4880398;29;20022;-81
2024/04/07 22:34:27;;;;;;;;;;;;;;;5.71;100.00;99027.78;4879247;29;20395;-84
2024/04/07 22:36:52;;;;;;;;;;;;;;;5.64;100.00;99033.25;4880562;29;20022;-81
2024/04/07 22:39:19;;;;;;;;;;;;;;;5.67;100.00;99052.47;4880277;29;19931;-80
2024/04/07 22:41:45;;;;;;;;;;;;;;;5.63;100.00;99046.44;4879393;29;19927;-81
2024/04/07 22:44:10;;;;;;;;;;;;;;;5.71;100.00;99065.47;4863534;29;19924;-80
2024/04/07 22:46:35;;;;;;;;;;;;;;;5.76;100.00;99060.03;4879632;29;19920;-81
2024/04/07 22:49:00;;;;;;;;;;;;;;;5.78;100.00;99076.63;4878854;29;19932;-80
2024/04/07 22:51:26;;;;;;;;;;;;;;;5.73;100.00;99078.56;4879213;29;19965;-81
2024/04/07 22:53:54;;;;;;;;;;;;;;;5.80;100.00;99082.69;4863284;29;19924;-81
2024/04/07 22:56:19;;;;;;;;;;;;;;;5.79;100.00;99089.72;4863240;29;19924;-81
2024/04/07 22:58:45;;;;;;;;;;;;;;;5.75;100.00;99085.47;4879994;29;19920;-81
2024/04/07 23:01:17;;;;;;;;;;;;;;;5.76;100.00;99083.69;4863117;29;19975;-86
2024/04/07 23:03:43;;;;;;;;;;;;;;;5.78;100.00;99080.09;4838925;29;19925;-81
2024/04/07 23:06:09;;;;;;;;;;;;;;;5.81;100.00;99069.47;4840650;29;20458;-81
